Time;durP1;ratioP1;P1;durP2;ratioP2;P2;SDS_P1;SDS_P2;PMS_P1;PMS_P2;Temp;Humidity;BMP_temperature;BMP_pressure;BME280_temperature;BME280_humidity;BME280_pressure;Samples;Min_cycle;Max_cycle;Signal;HPM_P1;HPM_P2
2023/11/17 00:01:10;;;;;;;19.85;12.52;;;3.20;99.90;;;;;;5054735;28;20124;-80
2023/11/17 00:03:36;;;;;;;23.98;13.65;;;3.20;99.90;;;;;;5054540;28;20102;-79
2023/11/17 00:06:02;;;;;;;20.50;13.60;;;3.20;99.90;;;;;;5055117;28;20025;-79
2023/11/17 00:08:28;;;;;;;31.73;14.77;;;3.10;99.90;;;;;;5055475;28;20029;-78
2023/11/17 00:10:55;;;;;;;22.15;14.45;;;3.10;99.90;;;;;;5054821;28;20025;-80
2023/11/17 00:13:20;;;;;;;29.70;14.32;;;3.10;99.90;;;;;;5055225;28;20039;-79
2023/11/17 00:15:46;;;;;;;21.17;13.85;;;3.10;99.90;;;;;;5054950;28;20025;-79
2023/11/17 00:18:11;;;;;;;18.80;12.73;;;3.10;99.90;;;;;;5054769;28;20040;-79
2023/11/17 00:20:37;;;;;;;22.13;13.57;;;3.10;99.90;;;;;;5054292;28;20500;-79
2023/11/17 00:23:03;;;;;;;20.98;13.80;;;3.10;99.90;;;;;;5054670;28;20025;-79
2023/11/17 00:25:28;;;;;;;23.48;14.93;;;3.10;99.90;;;;;;5054807;28;20025;-80
2023/11/17 00:27:54;;;;;;;28.50;15.45;;;3.10;99.90;;;;;;5054034;28;20036;-80
2023/11/17 00:30:20;;;;;;;27.38;17.08;;;3.20;99.90;;;;;;5054510;28;20482;-79
2023/11/17 00:32:45;;;;;;;31.48;17.83;;;3.20;99.90;;;;;;5054438;28;20029;-79
2023/11/17 00:35:11;;;;;;;29.15;17.77;;;3.30;99.90;;;;;;5054783;28;20040;-78
2023/11/17 00:37:39;;;;;;;33.33;18.50;;;3.30;99.90;;;;;;5054429;28;20505;-79
2023/11/17 00:40:08;;;;;;;31.17;19.63;;;3.30;99.90;;;;;;5054831;28;20147;-79
2023/11/17 00:42:34;;;;;;;28.13;18.08;;;3.40;99.90;;;;;;5054532;28;20064;-79
2023/11/17 00:45:00;;;;;;;28.15;17.90;;;3.40;99.90;;;;;;5054345;28;20032;-79
2023/11/17 00:47:25;;;;;;;25.83;17.25;;;3.40;99.90;;;;;;5053513;28;20514;-79
2023/11/17 00:49:52;;;;;;;28.38;17.70;;;3.30;99.90;;;;;;5053841;28;20382;-80
2023/11/17 00:52:18;;;;;;;36.10;19.38;;;3.30;99.90;;;;;;5053586;28;20490;-79
2023/11/17 00:54:47;;;;;;;35.30;19.50;;;3.20;99.90;;;;;;5053612;28;20078;-79
2023/11/17 00:57:13;;;;;;;30.23;17.88;;;3.20;99.90;;;;;;5053713;28;20025;-78
2023/11/17 00:59:39;;;;;;;30.55;18.50;;;3.20;99.90;;;;;;5053241;28;20048;-79
2023/11/17 01:02:06;;;;;;;26.92;17.92;;;3.10;99.90;;;;;;5053283;28;20105;-79
2023/11/17 01:04:32;;;;;;;27.70;17.50;;;3.00;99.90;;;;;;5053515;28;20032;-79
2023/11/17 01:06:58;;;;;;;28.40;17.85;;;3.00;99.90;;;;;;5053171;28;20028;-78
2023/11/17 01:09:25;;;;;;;29.45;17.95;;;2.90;99.90;;;;;;5053643;28;20033;-80
2023/11/17 01:11:52;;;;;;;28.55;17.10;;;2.90;99.90;;;;;;5053413;28;20029;-79
2023/11/17 01:14:17;;;;;;;28.38;17.45;;;2.80;99.90;;;;;;5053445;28;20102;-79
2023/11/17 01:16:44;;;;;;;23.20;16.05;;;2.80;99.90;;;;;;5053323;28;20021;-79
2023/11/17 01:19:10;;;;;;;26.50;17.20;;;2.80;99.90;;;;;;5053240;28;20545;-79
2023/11/17 01:21:36;;;;;;;24.85;16.80;;;2.70;99.90;;;;;;5053203;28;20111;-79
2023/11/17 01:24:03;;;;;;;28.25;17.67;;;2.70;99.90;;;;;;5052979;28;20417;-79
2023/11/17 01:26:28;;;;;;;27.05;16.17;;;2.70;99.90;;;;;;5052879;28;20029;-78
2023/11/17 01:28:54;;;;;;;31.60;18.88;;;2.70;99.90;;;;;;5053463;28;20071;-79
2023/11/17 01:31:21;;;;;;;32.42;18.55;;;2.60;99.90;;;;;;5052659;28;20055;-79
2023/11/17 01:33:48;;;;;;;28.20;17.95;;;2.60;99.90;;;;;;5053121;28;20025;-79
2023/11/17 01:36:14;;;;;;;30.30;18.33;;;2.60;99.90;;;;;;5052669;28;20240;-78
2023/11/17 01:38:40;;;;;;;26.73;17.08;;;2.60;99.90;;;;;;5052979;28;20482;-79
2023/11/17 01:41:06;;;;;;;33.67;17.85;;;2.50;99.90;;;;;;5052863;28;20072;-80
2023/11/17 01:43:32;;;;;;;30.92;19.15;;;2.50;99.90;;;;;;5052703;28;20048;-80
2023/11/17 01:45:58;;;;;;;31.50;19.52;;;2.50;99.90;;;;;;5053097;28;20025;-79
2023/11/17 01:48:24;;;;;;;33.33;21.33;;;2.50;99.90;;;;;;5053194;28;20036;-80
2023/11/17 01:50:51;;;;;;;32.40;19.80;;;2.50;99.90;;;;;;5052908;28;20036;-79
2023/11/17 01:53:17;;;;;;;28.67;18.13;;;2.40;99.90;;;;;;5052839;28;20028;-80
2023/11/17 01:55:45;;;;;;;25.95;18.00;;;2.40;99.90;;;;;;5052846;28;20505;-80
2023/11/17 01:58:11;;;;;;;31.58;18.85;;;2.40;99.90;;;;;;5052483;28;20428;-77
2023/11/17 02:00:37;;;;;;;26.20;18.73;;;2.30;99.90;;;;;;5055797;28;20049;-79
2023/11/17 02:03:04;;;;;;;28.45;17.15;;;2.30;99.90;;;;;;5056684;28;20488;-79
2023/11/17 02:05:30;;;;;;;35.28;21.20;;;2.30;99.90;;;;;;5056646;28;20021;-78
2023/11/17 02:08:39;;;;;;;40.33;22.33;;;2.20;99.90;;;;;;5056669;28;20386;-79
2023/11/17 02:13:58;;;;;;;32.00;20.33;;;2.30;99.90;;;;;;5119161;22;20416;-77
2023/11/17 02:16:24;;;;;;;33.33;19.60;;;2.20;99.90;;;;;;5111279;28;20028;-77
2023/11/17 02:18:54;;;;;;;26.50;19.10;;;2.20;99.90;;;;;;5110719;28;20024;-77
2023/11/17 02:21:28;;;;;;;30.83;18.80;;;2.30;99.90;;;;;;5111398;28;20126;-77
2023/11/17 02:23:56;;;;;;;30.70;19.60;;;2.30;99.90;;;;;;5111323;28;20073;-77
2023/11/17 02:26:33;;;;;;;31.02;18.35;;;2.30;99.90;;;;;;5111054;28;20035;-77
2023/11/17 02:29:07;;;;;;;32.72;18.95;;;2.30;99.90;;;;;;5111102;28;20020;-78
2023/11/17 02:31:33;;;;;;;29.92;19.80;;;2.30;99.90;;;;;;5111181;28;20027;-77
2023/11/17 02:34:08;;;;;;;25.88;18.35;;;2.30;99.90;;;;;;5110483;28;20016;-77
2023/11/17 02:36:35;;;;;;;30.48;20.00;;;2.20;99.90;;;;;;5110820;28;20020;-78
2023/11/17 02:41:56;;;;;;;31.35;19.58;;;2.20;99.90;;;;;;5110479;28;20110;-77
2023/11/17 02:44:28;;;;;;;32.08;19.88;;;2.10;99.90;;;;;;5110739;28;20028;-77
2023/11/17 02:46:58;;;;;;;31.73;19.05;;;2.10;99.90;;;;;;5110607;28;20118;-77
2023/11/17 02:49:41;;;;;;;29.15;18.13;;;2.00;99.90;;;;;;5111124;28;20027;-77
2023/11/17 02:52:12;;;;;;;28.65;19.52;;;2.00;99.90;;;;;;5110819;28;20362;-76
2023/11/17 02:54:40;;;;;;;35.45;20.52;;;2.00;99.90;;;;;;5110431;28;20028;-77
2023/11/17 02:57:07;;;;;;;35.17;20.50;;;2.00;99.90;;;;;;5110848;28;20023;-77
2023/11/17 02:59:35;;;;;;;31.17;19.05;;;2.00;99.90;;;;;;5110587;28;20020;-77
2023/11/17 03:02:02;;;;;;;32.03;19.45;;;2.00;99.90;;;;;;5110769;28;20171;-77
2023/11/17 03:04:28;;;;;;;29.55;18.38;;;2.00;99.90;;;;;;5110436;28;20055;-76
2023/11/17 03:06:55;;;;;;;32.35;19.23;;;1.90;99.90;;;;;;5110236;28;20055;-77
2023/11/17 03:09:22;;;;;;;30.05;18.63;;;1.90;99.90;;;;;;5110181;28;20028;-77
2023/11/17 03:11:50;;;;;;;31.73;18.75;;;1.90;99.90;;;;;;5109899;28;20392;-77
2023/11/17 03:14:16;;;;;;;29.17;18.40;;;1.80;99.90;;;;;;5110087;28;20101;-77
2023/11/17 03:16:42;;;;;;;27.30;17.65;;;1.80;99.90;;;;;;5110170;28;20024;-76
2023/11/17 03:19:10;;;;;;;25.88;17.10;;;1.80;99.90;;;;;;5109706;28;20019;-76
2023/11/17 03:21:40;;;;;;;30.25;18.42;;;1.70;99.90;;;;;;5109730;28;20397;-76
2023/11/17 03:24:14;;;;;;;32.20;18.45;;;1.70;99.90;;;;;;5101893;28;20477;-77
2023/11/17 03:26:42;;;;;;;31.17;18.35;;;1.70;99.90;;;;;;5096460;28;20497;-77
2023/11/17 03:29:08;;;;;;;30.73;18.85;;;1.70;99.90;;;;;;5096714;28;20085;-76
2023/11/17 03:31:34;;;;;;;27.60;18.48;;;1.60;99.90;;;;;;5095856;28;20020;-77
2023/11/17 03:34:01;;;;;;;29.80;18.42;;;1.60;99.90;;;;;;5096482;28;20485;-76
2023/11/17 03:36:26;;;;;;;34.83;20.80;;;1.50;99.90;;;;;;5096193;28;20020;-76
2023/11/17 03:38:55;;;;;;;44.33;22.98;;;1.60;99.90;;;;;;5096129;28;20036;-76
2023/11/17 03:41:22;;;;;;;45.55;23.30;;;1.70;99.90;;;;;;5096255;28;20089;-77
2023/11/17 03:43:49;;;;;;;43.58;24.23;;;1.80;99.90;;;;;;5095705;28;20466;-77
2023/11/17 03:46:15;;;;;;;42.92;25.02;;;1.80;99.90;;;;;;5095553;28;20016;-77
2023/11/17 03:48:40;;;;;;;51.20;26.67;;;1.90;99.90;;;;;;5095840;28;20446;-77
2023/11/17 03:51:08;;;;;;;50.28;27.05;;;2.00;99.90;;;;;;5095455;28;20064;-77
2023/11/17 03:53:35;;;;;;;51.08;27.70;;;2.10;99.90;;;;;;5095315;28;20035;-77
2023/11/17 03:56:01;;;;;;;55.20;27.48;;;2.10;99.90;;;;;;5095714;28;20481;-77
2023/11/17 03:58:27;;;;;;;48.97;27.40;;;2.00;99.90;;;;;;5095428;28;20107;-77
2023/11/17 04:00:53;;;;;;;47.97;26.77;;;2.00;99.90;;;;;;5095788;28;20506;-77
2023/11/17 04:03:19;;;;;;;45.78;25.65;;;1.90;99.90;;;;;;5095695;28;20401;-77
2023/11/17 04:05:45;;;;;;;38.83;24.25;;;1.80;99.90;;;;;;5095306;28;20024;-76
2023/11/17 04:08:16;;;;;;;39.40;23.40;;;1.70;99.90;;;;;;5095578;28;20522;-76
2023/11/17 04:10:44;;;;;;;35.25;22.67;;;1.70;99.90;;;;;;5095503;28;20043;-77
2023/11/17 04:13:09;;;;;;;39.97;23.10;;;1.60;99.90;;;;;;5094861;28;20493;-77
2023/11/17 04:15:35;;;;;;;38.85;22.55;;;1.60;99.90;;;;;;5095349;28;20031;-76
2023/11/17 04:18:01;;;;;;;38.85;21.00;;;1.60;99.90;;;;;;5095384;28;20024;-77
2023/11/17 04:20:27;;;;;;;30.27;18.95;;;1.50;99.90;;;;;;5095227;28;20073;-76
2023/11/17 04:22:52;;;;;;;34.53;21.02;;;1.40;99.90;;;;;;5095322;28;20397;-76
2023/11/17 04:25:18;;;;;;;33.85;20.58;;;1.30;99.90;;;;;;5095387;28;20024;-76
2023/11/17 04:27:43;;;;;;;37.58;22.05;;;1.30;99.90;;;;;;5095194;28;20031;-76
2023/11/17 04:30:11;;;;;;;34.92;21.67;;;1.30;99.90;;;;;;5095265;28;20111;-77
2023/11/17 04:32:37;;;;;;;39.85;21.17;;;1.30;99.90;;;;;;5094795;28;20119;-77
2023/11/17 04:35:03;;;;;;;33.53;21.60;;;1.20;99.90;;;;;;5094065;28;20438;-77
2023/11/17 04:37:29;;;;;;;33.90;19.85;;;1.20;99.90;;;;;;5094728;28;20028;-76
2023/11/17 04:39:55;;;;;;;40.75;22.50;;;1.10;99.90;;;;;;5095004;28;20032;-77
2023/11/17 04:42:21;;;;;;;36.58;22.00;;;1.10;99.90;;;;;;5094943;28;20035;-76
2023/11/17 04:44:47;;;;;;;39.03;22.95;;;1.10;99.90;;;;;;5094858;28;20401;-77
2023/11/17 04:47:14;;;;;;;35.80;21.08;;;1.10;99.90;;;;;;5094658;28;20040;-77
2023/11/17 04:49:40;;;;;;;38.47;21.77;;;1.10;99.90;;;;;;5094280;28;20031;-77
2023/11/17 04:52:06;;;;;;;37.58;22.80;;;1.10;99.90;;;;;;5094203;28;20114;-77
2023/11/17 04:54:31;;;;;;;38.58;22.75;;;1.10;99.90;;;;;;5094728;28;20024;-77
2023/11/17 04:56:57;;;;;;;36.92;22.55;;;1.20;99.90;;;;;;5094309;28;20103;-77
2023/11/17 04:59:23;;;;;;;37.78;22.73;;;1.20;99.90;;;;;;5094238;28;20024;-75
2023/11/17 05:01:49;;;;;;;37.65;22.27;;;1.10;99.90;;;;;;5094190;28;20057;-77
2023/11/17 05:04:15;;;;;;;36.83;21.58;;;1.10;99.90;;;;;;5094396;28;20069;-78
2023/11/17 05:06:42;;;;;;;36.38;22.90;;;1.10;99.90;;;;;;5094039;28;20428;-77
2023/11/17 05:09:12;;;;;;;36.53;23.30;;;1.10;99.90;;;;;;5094368;28;20473;-77
2023/11/17 05:11:39;;;;;;;44.72;25.23;;;1.10;99.90;;;;;;5093790;28;20020;-77
2023/11/17 05:14:05;;;;;;;44.22;24.90;;;1.20;99.90;;;;;;5093792;28;20033;-77
2023/11/17 05:16:35;;;;;;;39.53;24.73;;;1.20;99.90;;;;;;5094289;28;20020;-76
2023/11/17 05:19:03;;;;;;;42.40;25.58;;;1.20;99.90;;;;;;5094304;28;20385;-77
2023/11/17 05:21:30;;;;;;;45.05;25.65;;;1.20;99.90;;;;;;5094194;28;20020;-77
2023/11/17 05:23:56;;;;;;;53.35;27.52;;;1.20;99.90;;;;;;5093984;28;20016;-77
2023/11/17 05:26:22;;;;;;;48.78;27.48;;;1.20;99.90;;;;;;5094049;28;20032;-76
2023/11/17 05:28:48;;;;;;;41.17;25.38;;;1.30;99.90;;;;;;5094035;28;20160;-76
2023/11/17 05:31:14;;;;;;;40.42;24.60;;;1.20;99.90;;;;;;5093990;28;20024;-76
2023/11/17 05:33:39;;;;;;;39.45;24.13;;;1.20;99.90;;;;;;5093745;28;20489;-76
2023/11/17 05:36:05;;;;;;;42.28;24.80;;;1.20;99.90;;;;;;5093993;28;20085;-76
2023/11/17 05:38:31;;;;;;;37.88;23.52;;;1.20;99.90;;;;;;5093560;28;20024;-77
2023/11/17 05:40:57;;;;;;;42.80;25.63;;;1.20;99.90;;;;;;5093903;28;20390;-77
2023/11/17 05:43:23;;;;;;;47.25;27.83;;;1.20;99.90;;;;;;5093524;28;20031;-77
2023/11/17 05:45:50;;;;;;;42.58;24.95;;;1.20;99.90;;;;;;5094035;28;20036;-77
2023/11/17 05:48:17;;;;;;;36.50;23.17;;;1.20;99.90;;;;;;5093596;28;20397;-77
2023/11/17 05:50:42;;;;;;;44.42;26.25;;;1.10;99.90;;;;;;5093775;28;20039;-77
2023/11/17 05:53:08;;;;;;;53.72;28.92;;;1.10;99.90;;;;;;5093673;28;20032;-75
2023/11/17 05:55:34;;;;;;;45.80;25.83;;;1.10;99.90;;;;;;5093303;28;20068;-77
2023/11/17 05:58:00;;;;;;;42.17;25.55;;;1.20;99.90;;;;;;5093255;28;20481;-77
2023/11/17 06:00:27;;;;;;;47.58;25.48;;;1.20;99.90;;;;;;5093302;28;20027;-77
2023/11/17 06:02:53;;;;;;;50.08;28.35;;;1.20;99.90;;;;;;5093487;28;20028;-77
2023/11/17 06:05:20;;;;;;;44.13;25.42;;;1.20;99.90;;;;;;5093468;28;20034;-77
2023/11/17 06:07:45;;;;;;;40.33;23.83;;;1.20;99.90;;;;;;5093937;28;20393;-76
2023/11/17 06:10:11;;;;;;;43.45;23.77;;;1.20;99.90;;;;;;5093366;28;20035;-77
2023/11/17 06:12:37;;;;;;;42.53;24.60;;;1.20;99.90;;;;;;5093013;28;20054;-78
2023/11/17 06:15:04;;;;;;;44.03;25.35;;;1.20;99.90;;;;;;5093172;28;20024;-77
2023/11/17 06:17:30;;;;;;;42.55;24.80;;;1.20;99.90;;;;;;5092960;28;20028;-77
2023/11/17 06:20:00;;;;;;;43.85;24.35;;;1.10;99.90;;;;;;5093457;28;20119;-75
2023/11/17 06:22:28;;;;;;;37.58;22.40;;;1.10;99.90;;;;;;5093256;28;20035;-75
2023/11/17 06:24:53;;;;;;;37.40;22.83;;;1.10;99.90;;;;;;5093322;28;20115;-75
2023/11/17 06:27:19;;;;;;;36.83;21.98;;;1.10;99.90;;;;;;5093230;28;20062;-77
2023/11/17 06:29:45;;;;;;;38.90;23.17;;;1.10;99.90;;;;;;5093078;28;20132;-77
2023/11/17 06:32:11;;;;;;;40.30;23.02;;;1.10;99.90;;;;;;5093064;28;20036;-77
2023/11/17 06:34:38;;;;;;;42.17;23.95;;;1.10;99.90;;;;;;5093295;28;20473;-76
2023/11/17 06:37:06;;;;;;;39.33;23.67;;;1.00;99.90;;;;;;5092891;28;20142;-77
2023/11/17 06:39:32;;;;;;;43.47;24.55;;;1.00;99.90;;;;;;5093152;28;20032;-77
2023/11/17 06:41:57;;;;;;;43.70;24.67;;;1.00;99.90;;;;;;5093259;28;20401;-76
2023/11/17 06:44:25;;;;;;;64.30;29.90;;;1.00;99.90;;;;;;5092814;28;20388;-76
2023/11/17 06:46:52;;;;;;;49.58;27.60;;;1.00;99.90;;;;;;5093065;28;20028;-76
2023/11/17 06:49:19;;;;;;;48.42;26.63;;;1.00;99.90;;;;;;5093049;28;20032;-77
2023/11/17 06:51:48;;;;;;;50.70;26.88;;;1.00;99.90;;;;;;5093351;28;20028;-76
2023/11/17 06:54:15;;;;;;;45.65;26.02;;;1.00;99.90;;;;;;5092886;28;20496;-77
2023/11/17 06:56:41;;;;;;;54.58;28.52;;;1.00;99.90;;;;;;5093067;28;20039;-76
2023/11/17 06:59:09;;;;;;;66.05;32.28;;;1.10;99.90;;;;;;5094059;28;20465;-76
2023/11/17 07:01:35;;;;;;;59.85;30.27;;;1.10;99.90;;;;;;5096873;28;20016;-76
2023/11/17 07:04:05;;;;;;;103.18;46.47;;;1.20;99.90;;;;;;5096396;28;20029;-76
2023/11/17 07:06:31;;;;;;;95.28;46.70;;;1.20;99.90;;;;;;5095296;28;20024;-75
2023/11/17 07:08:57;;;;;;;87.82;45.53;;;1.30;99.90;;;;;;5096574;28;20035;-74
2023/11/17 07:11:24;;;;;;;94.97;45.72;;;1.40;99.90;;;;;;5095440;28;20385;-73
2023/11/17 07:13:52;;;;;;;101.85;49.90;;;1.40;99.90;;;;;;5095690;28;20059;-73
2023/11/17 07:16:20;;;;;;;96.45;48.67;;;1.40;99.90;;;;;;5095456;28;20085;-76
2023/11/17 07:18:47;;;;;;;89.28;45.97;;;1.40;99.90;;;;;;5094556;28;20020;-75
2023/11/17 07:21:13;;;;;;;86.47;43.75;;;1.50;99.90;;;;;;5088105;28;20028;-74
2023/11/17 07:23:43;;;;;;;81.25;42.95;;;1.50;99.90;;;;;;5115021;28;20023;-76
2023/11/17 07:26:17;;;;;;;87.10;42.60;;;1.50;99.90;;;;;;5111175;28;20028;-75
2023/11/17 07:28:45;;;;;;;90.72;44.47;;;1.60;99.90;;;;;;5096135;28;20493;-75
2023/11/17 07:31:11;;;;;;;80.55;40.80;;;1.70;99.90;;;;;;5095861;28;20119;-74
2023/11/17 07:33:37;;;;;;;107.60;52.67;;;1.80;99.90;;;;;;5095778;28;20119;-75
2023/11/17 07:36:03;;;;;;;90.45;46.22;;;2.00;99.90;;;;;;5095705;28;20119;-75
2023/11/17 07:38:29;;;;;;;95.78;46.20;;;2.10;99.90;;;;;;5099947;28;20026;-74
2023/11/17 07:40:54;;;;;;;91.00;44.28;;;2.10;99.90;;;;;;5096079;28;20537;-74
2023/11/17 07:43:20;;;;;;;91.72;45.05;;;2.30;99.90;;;;;;5095773;28;20032;-75
2023/11/17 07:45:46;;;;;;;84.68;42.45;;;2.30;99.90;;;;;;5094883;28;20039;-76
2023/11/17 07:48:12;;;;;;;84.63;42.03;;;2.40;99.90;;;;;;5095778;28;20028;-75
2023/11/17 07:50:41;;;;;;;87.20;41.00;;;2.50;99.90;;;;;;5095669;28;20165;-76
2023/11/17 07:53:08;;;;;;;79.20;41.67;;;2.60;99.90;;;;;;5095519;28;20024;-76
2023/11/17 07:55:34;;;;;;;82.95;41.53;;;2.60;99.90;;;;;;5094397;28;20024;-76
2023/11/17 07:58:01;;;;;;;68.53;38.97;;;2.60;99.90;;;;;;5094798;28;20024;-76
2023/11/17 08:00:28;;;;;;;74.93;39.58;;;2.70;99.90;;;;;;5095489;28;20065;-77
2023/11/17 08:02:54;;;;;;;77.35;41.67;;;2.80;99.90;;;;;;5095725;28;20028;-77
2023/11/17 08:05:20;;;;;;;77.93;40.03;;;2.80;99.90;;;;;;5075364;28;20514;-76
2023/11/17 08:07:46;;;;;;;73.18;41.65;;;2.90;99.90;;;;;;5085775;28;20020;-76
2023/11/17 08:10:14;;;;;;;87.85;47.90;;;3.10;99.90;;;;;;5095401;28;20036;-76
2023/11/17 08:12:39;;;;;;;70.00;37.00;;;3.10;99.90;;;;;;5095459;28;20058;-77
2023/11/17 08:15:06;;;;;;;65.30;36.33;;;3.30;99.90;;;;;;5095166;28;20036;-76
2023/11/17 08:17:33;;;;;;;68.90;36.95;;;3.50;99.90;;;;;;5094863;28;20081;-76
2023/11/17 08:19:59;;;;;;;54.78;33.40;;;3.70;99.90;;;;;;5094592;28;20062;-76
2023/11/17 08:22:29;;;;;;;58.25;34.85;;;4.00;99.90;;;;;;5094852;28;20041;-76
2023/11/17 08:24:56;;;;;;;44.67;28.27;;;4.60;99.90;;;;;;5094479;28;20505;-77
2023/11/17 08:27:22;;;;;;;51.47;33.35;;;4.60;99.90;;;;;;5093752;28;20037;-76
2023/11/17 08:29:48;;;;;;;54.38;32.92;;;4.70;99.90;;;;;;5094675;28;20028;-76
2023/11/17 08:32:13;;;;;;;48.22;30.15;;;4.90;99.90;;;;;;5094764;28;20032;-76
2023/11/17 08:34:39;;;;;;;36.42;25.08;;;5.00;99.90;;;;;;5094986;28;20048;-76
2023/11/17 08:37:08;;;;;;;38.40;24.33;;;5.10;99.90;;;;;;5094519;28;20028;-76
2023/11/17 08:39:34;;;;;;;30.73;21.27;;;5.20;99.90;;;;;;5094765;28;20028;-75
2023/11/17 08:42:01;;;;;;;31.35;21.52;;;5.00;99.90;;;;;;5094575;28;20034;-76
2023/11/17 08:44:27;;;;;;;38.90;20.35;;;5.10;99.90;;;;;;5094619;28;20024;-76
2023/11/17 08:46:53;;;;;;;32.65;18.95;;;5.10;99.90;;;;;;5094305;28;20077;-76
2023/11/17 08:49:19;;;;;;;36.97;20.88;;;4.90;99.90;;;;;;5093580;28;20032;-76
2023/11/17 08:51:48;;;;;;;41.05;22.20;;;4.80;99.90;;;;;;5093583;28;20388;-75
2023/11/17 08:54:14;;;;;;;41.35;23.23;;;4.70;99.90;;;;;;5094300;28;20036;-77
2023/11/17 08:56:41;;;;;;;68.43;27.63;;;4.60;99.90;;;;;;5093575;28;20028;-76
2023/11/17 08:59:07;;;;;;;82.43;29.80;;;4.60;99.90;;;;;;5094555;28;20024;-76
2023/11/17 09:01:33;;;;;;;144.10;31.73;;;4.70;99.90;;;;;;5094441;28;20039;-77
2023/11/17 09:03:58;;;;;;;197.38;54.65;;;4.70;99.90;;;;;;5094493;28;20055;-76
2023/11/17 09:06:24;;;;;;;172.88;41.17;;;4.70;99.90;;;;;;5094879;28;20060;-77
2023/11/17 09:08:50;;;;;;;228.85;51.35;;;4.50;99.90;;;;;;5093238;28;20024;-77
2023/11/17 09:11:16;;;;;;;168.35;41.72;;;4.40;99.90;;;;;;5094214;28;20031;-76
2023/11/17 09:13:43;;;;;;;224.57;42.90;;;4.40;99.90;;;;;;5093687;28;20036;-77
2023/11/17 09:16:09;;;;;;;135.25;43.22;;;4.30;99.90;;;;;;5094859;28;20485;-75
2023/11/17 09:18:35;;;;;;;165.38;42.58;;;4.30;99.90;;;;;;5093768;28;20106;-76
2023/11/17 09:21:05;;;;;;;120.25;42.92;;;4.20;99.90;;;;;;5093776;28;20035;-76
2023/11/17 09:23:34;;;;;;;164.68;50.60;;;4.20;99.90;;;;;;5093206;28;20036;-76
2023/11/17 09:26:02;;;;;;;136.35;52.03;;;4.30;99.90;;;;;;5094011;28;20081;-76
2023/11/17 09:28:28;;;;;;;178.15;62.63;;;4.40;99.90;;;;;;5094044;28;20020;-76
2023/11/17 09:30:56;;;;;;;169.40;53.28;;;4.30;99.90;;;;;;5093627;28;20055;-76
2023/11/17 09:33:22;;;;;;;137.13;53.80;;;4.30;99.90;;;;;;5093887;28;20032;-77
2023/11/17 09:35:48;;;;;;;126.25;47.42;;;4.30;99.90;;;;;;5093946;28;20077;-77
2023/11/17 09:38:16;;;;;;;120.35;47.17;;;4.40;99.90;;;;;;5093371;28;20038;-76
2023/11/17 09:40:42;;;;;;;145.05;48.53;;;4.40;99.90;;;;;;5093493;28;20024;-77
2023/11/17 09:43:21;;;;;;;131.02;45.92;;;4.30;99.90;;;;;;5092853;28;20036;-77
2023/11/17 09:45:49;;;;;;;125.20;46.22;;;4.40;99.90;;;;;;5081604;28;20035;-75
2023/11/17 09:48:16;;;;;;;149.88;46.72;;;4.40;99.90;;;;;;5093549;28;20503;-76
2023/11/17 09:50:43;;;;;;;147.32;45.20;;;4.50;99.90;;;;;;5093609;28;20035;-76
2023/11/17 09:53:12;;;;;;;154.35;47.65;;;4.50;99.90;;;;;;5092580;28;20081;-76
2023/11/17 09:55:39;;;;;;;153.38;48.85;;;4.50;99.90;;;;;;5093119;28;20027;-78
2023/11/17 09:58:06;;;;;;;178.48;49.00;;;4.60;99.90;;;;;;5093383;28;20031;-77
2023/11/17 10:00:35;;;;;;;183.15;50.47;;;4.60;99.90;;;;;;5093310;28;20028;-76
2023/11/17 10:03:02;;;;;;;136.90;48.90;;;4.50;99.90;;;;;;5092849;28;20034;-77
2023/11/17 10:05:30;;;;;;;177.80;51.03;;;4.50;99.90;;;;;;5092997;28;20024;-78
2023/11/17 10:08:00;;;;;;;207.55;50.80;;;4.40;99.90;;;;;;5092011;28;20032;-76
2023/11/17 10:10:27;;;;;;;190.07;50.22;;;4.50;99.90;;;;;;5093308;28;20052;-76
2023/11/17 10:12:56;;;;;;;240.13;50.75;;;4.40;99.90;;;;;;5092793;28;20417;-76
2023/11/17 10:15:25;;;;;;;241.98;53.28;;;4.30;99.90;;;;;;5092569;28;20024;-77
2023/11/17 10:17:57;;;;;;;240.10;54.45;;;4.20;99.90;;;;;;5092743;28;20439;-77
2023/11/17 10:20:23;;;;;;;277.13;57.22;;;4.30;99.90;;;;;;5093156;28;20024;-75
2023/11/17 10:22:51;;;;;;;314.23;57.83;;;4.30;99.90;;;;;;5092645;28;20093;-77
2023/11/17 10:25:18;;;;;;;339.65;60.78;;;4.30;99.90;;;;;;5092800;28;20016;-76
2023/11/17 10:27:49;;;;;;;426.08;67.03;;;4.40;99.90;;;;;;5093022;28;20024;-76
2023/11/17 10:30:16;;;;;;;280.63;62.60;;;4.50;99.90;;;;;;5093340;28;20493;-77
2023/11/17 10:32:48;;;;;;;235.00;62.00;;;4.70;99.90;;;;;;5092815;28;20054;-77
2023/11/17 10:35:24;;;;;;;322.83;69.47;;;4.90;99.90;;;;;;5096219;28;20027;-76
2023/11/17 10:37:54;;;;;;;248.43;65.15;;;5.20;99.90;;;;;;5097503;28;20574;-75
2023/11/17 10:40:27;;;;;;;345.23;63.45;;;5.20;99.90;;;;;;5097173;28;20109;-75
2023/11/17 10:43:11;;;;;;;197.75;57.00;;;5.10;99.90;;;;;;5096828;28;20028;-76
2023/11/17 10:45:39;;;;;;;187.75;55.20;;;5.10;99.90;;;;;;5097181;28;20081;-76
2023/11/17 10:48:07;;;;;;;190.02;57.83;;;5.10;99.90;;;;;;5096586;28;20036;-76
2023/11/17 10:50:35;;;;;;;155.05;55.65;;;5.00;99.90;;;;;;5097155;28;20028;-76
2023/11/17 10:53:19;;;;;;;185.98;57.65;;;4.90;99.90;;;;;;5106019;28;20147;-74
2023/11/17 10:55:46;;;;;;;184.00;57.15;;;5.30;99.90;;;;;;5116938;28;20104;-76
2023/11/17 10:58:15;;;;;;;221.32;59.95;;;5.50;99.90;;;;;;5116930;28;20020;-75
2023/11/17 11:00:43;;;;;;;308.08;61.35;;;5.30;99.90;;;;;;5117408;28;20020;-77
2023/11/17 11:03:10;;;;;;;180.32;54.67;;;5.20;99.90;;;;;;5105467;28;20032;-77
2023/11/17 11:05:38;;;;;;;188.35;56.10;;;5.20;99.90;;;;;;5094215;28;20536;-76
2023/11/17 11:08:13;;;;;;;217.95;56.95;;;5.30;99.90;;;;;;5093549;28;20024;-76
2023/11/17 11:10:47;;;;;;;224.85;58.13;;;5.30;99.90;;;;;;5095686;28;20027;-75
2023/11/17 11:13:14;;;;;;;201.80;58.47;;;5.30;99.90;;;;;;5088790;28;20547;-76
2023/11/17 11:15:40;;;;;;;157.60;56.50;;;5.30;99.90;;;;;;5093581;28;20024;-76
2023/11/17 11:18:06;;;;;;;145.82;55.20;;;5.40;99.90;;;;;;5094299;28;20476;-77
2023/11/17 11:20:33;;;;;;;132.73;52.13;;;5.50;99.90;;;;;;5093618;28;20055;-77
2023/11/17 11:23:02;;;;;;;145.45;53.75;;;5.40;99.90;;;;;;5091091;28;20107;-75
2023/11/17 11:25:29;;;;;;;151.68;53.90;;;5.40;99.90;;;;;;5087742;28;20028;-77
2023/11/17 11:27:57;;;;;;;143.52;51.63;;;5.50;99.90;;;;;;5092763;28;20028;-76
2023/11/17 11:30:24;;;;;;;141.55;53.97;;;5.50;99.90;;;;;;5091883;28;20035;-76
2023/11/17 11:32:51;;;;;;;125.28;50.47;;;5.70;99.90;;;;;;5095660;28;20028;-76
2023/11/17 11:35:17;;;;;;;122.95;49.97;;;5.80;99.90;;;;;;5095984;28;20534;-77
2023/11/17 11:37:43;;;;;;;121.97;50.90;;;5.80;99.90;;;;;;5094798;28;20103;-76
2023/11/17 11:40:12;;;;;;;124.93;51.72;;;5.80;99.90;;;;;;5095286;28;20093;-76
2023/11/17 11:42:44;;;;;;;120.20;49.10;;;5.90;99.90;;;;;;5096043;28;20107;-76
2023/11/17 11:45:16;;;;;;;118.68;50.00;;;5.90;99.90;;;;;;5095073;28;20035;-77
2023/11/17 11:47:49;;;;;;;117.35;48.83;;;6.20;99.90;;;;;;5095839;28;20063;-76
2023/11/17 11:50:20;;;;;;;115.07;49.50;;;6.30;99.90;;;;;;5095485;28;20052;-77
2023/11/17 11:53:15;;;;;;;110.88;47.97;;;6.60;99.90;;;;;;5095560;28;20040;-76
2023/11/17 11:55:41;;;;;;;104.80;46.35;;;7.00;99.90;;;;;;5095255;28;20024;-76
2023/11/17 11:58:07;;;;;;;102.63;46.17;;;7.40;99.90;;;;;;5095643;28;20534;-76
2023/11/17 12:00:34;;;;;;;99.57;44.40;;;7.50;99.90;;;;;;5095192;28;20393;-76
2023/11/17 12:03:03;;;;;;;91.82;41.92;;;7.50;99.90;;;;;;5095647;28;20501;-78
2023/11/17 12:05:33;;;;;;;84.80;39.90;;;7.60;99.90;;;;;;5095287;28;20020;-77
2023/11/17 12:08:02;;;;;;;93.57;42.33;;;7.60;99.90;;;;;;5094564;28;20515;-76
2023/11/17 12:10:42;;;;;;;89.25;40.22;;;7.80;99.90;;;;;;5094906;28;20164;-76
2023/11/17 12:13:45;;;;;;;81.82;37.80;;;8.00;99.90;;;;;;5094973;28;20500;-77
2023/11/17 12:16:14;;;;;;;79.83;37.50;;;8.20;99.90;;;;;;5095579;28;20110;-76
2023/11/17 12:18:43;;;;;;;75.40;36.03;;;8.30;99.90;;;;;;5095344;28;20024;-76
2023/11/17 12:21:17;;;;;;;72.95;34.78;;;8.10;99.90;;;;;;5095189;28;20032;-76
2023/11/17 12:23:51;;;;;;;74.40;33.90;;;8.20;99.90;;;;;;5094826;28;20480;-76
2023/11/17 12:26:18;;;;;;;62.80;30.73;;;8.20;99.90;;;;;;5094597;28;20028;-77
2023/11/17 12:28:44;;;;;;;69.50;32.17;;;8.20;99.90;;;;;;5094756;28;20119;-76
2023/11/17 12:31:14;;;;;;;68.45;30.50;;;8.20;99.90;;;;;;5095210;28;20388;-76
2023/11/17 12:33:42;;;;;;;62.90;29.13;;;8.30;99.90;;;;;;5094701;28;20138;-76
2023/11/17 12:36:13;;;;;;;62.65;30.05;;;8.20;99.90;;;;;;5095055;28;20032;-76
2023/11/17 12:38:40;;;;;;;57.42;28.50;;;8.40;99.90;;;;;;5094661;28;20073;-76
2023/11/17 12:41:09;;;;;;;57.05;28.05;;;8.40;99.90;;;;;;5095016;28;20047;-76